Time;durP1;ratioP1;P1;durP2;ratioP2;P2;SDS_P1;SDS_P2;PMS_P1;PMS_P2;Temp;Humidity;BMP_temperature;BMP_pressure;BME280_temperature;BME280_humidity;BME280_pressure;Samples;Min_cycle;Max_cycle;Signal;HPM_P1;HPM_P2
2021/07/14 00:02:15;;;;;;;10.82;9.73;;;;;;;;;;5032216;28;20942;-87
2021/07/14 00:04:41;;;;;;;10.98;9.88;;;;;;;;;;5050699;28;20398;-88
2021/07/14 00:07:07;;;;;;;13.02;9.63;;;;;;;;;;5033143;28;20380;-88
2021/07/14 00:09:33;;;;;;;11.82;10.73;;;;;;;;;;5033391;28;20438;-88
2021/07/14 00:12:02;;;;;;;11.65;10.13;;;;;;;;;;5031955;28;21207;-90
2021/07/14 00:15:00;;;;;;;10.88;9.88;;;;;;;;;;5031429;28;20417;-87
2021/07/14 00:22:33;;;;;;;10.75;9.60;;;;;;;;;;5049668;28;20422;-86
2021/07/14 00:25:04;;;;;;;10.40;9.40;;;;;;;;;;5032006;28;20563;-84
2021/07/14 00:27:30;;;;;;;11.27;10.15;;;;;;;;;;5050475;28;20364;-85
2021/07/14 00:29:56;;;;;;;11.30;9.70;;;;;;;;;;5033773;28;20404;-87
2021/07/14 00:32:23;;;;;;;13.38;10.55;;;;;;;;;;5051452;28;20857;-86
2021/07/14 00:34:49;;;;;;;11.88;10.63;;;;;;;;;;5034678;28;20380;-86
2021/07/14 00:37:15;;;;;;;11.98;10.55;;;;;;;;;;5050143;28;20892;-88
2021/07/14 00:39:42;;;;;;;10.52;9.52;;;;;;;;;;5031906;28;20372;-87
2021/07/14 00:42:09;;;;;;;13.33;10.93;;;;;;;;;;5032507;28;20364;-87
2021/07/14 00:44:35;;;;;;;12.10;10.87;;;;;;;;;;5050791;28;20459;-89
2021/07/14 00:47:02;;;;;;;12.60;11.15;;;;;;;;;;5050358;28;20371;-88
2021/07/14 00:49:29;;;;;;;12.32;11.13;;;;;;;;;;5032522;28;20950;-89
2021/07/14 00:51:55;;;;;;;13.15;11.90;;;;;;;;;;5050853;28;20959;-87
2021/07/14 00:54:21;;;;;;;14.15;12.52;;;;;;;;;;5050496;28;20437;-89
2021/07/14 00:56:48;;;;;;;13.90;12.00;;;;;;;;;;5050776;28;20403;-86
2021/07/14 00:59:14;;;;;;;14.40;12.05;;;;;;;;;;5032743;28;20402;-88
2021/07/14 01:01:40;;;;;;;12.15;11.07;;;;;;;;;;5032311;28;20379;-87
2021/07/14 01:04:10;;;;;;;13.57;11.02;;;;;;;;;;5032557;28;20407;-89
2021/07/14 01:06:41;;;;;;;12.50;10.90;;;;;;;;;;5050672;28;20419;-89
2021/07/14 01:09:09;;;;;;;13.05;11.75;;;;;;;;;;5052046;28;20368;-88
2021/07/14 01:11:37;;;;;;;11.77;10.67;;;;;;;;;;5033060;28;20380;-84
2021/07/14 01:14:21;;;;;;;14.45;11.75;;;;;;;;;;5033981;28;20380;-87
2021/07/14 01:16:49;;;;;;;13.45;12.18;;;;;;;;;;5033521;28;20372;-87
2021/07/14 01:19:33;;;;;;;14.75;12.77;;;;;;;;;;5033934;28;20461;-86
2021/07/14 01:22:02;;;;;;;13.80;11.60;;;;;;;;;;5034496;28;20376;-90
2021/07/14 01:24:33;;;;;;;14.50;12.20;;;;;;;;;;5053201;28;20403;-86
2021/07/14 01:27:04;;;;;;;13.88;12.48;;;;;;;;;;5033150;28;20383;-89
2021/07/14 01:29:31;;;;;;;14.65;12.95;;;;;;;;;;5032608;28;20387;-89
2021/07/14 01:31:58;;;;;;;15.23;13.27;;;;;;;;;;5033058;28;20465;-86
2021/07/14 01:34:24;;;;;;;15.40;13.52;;;;;;;;;;5050580;28;20553;-89
2021/07/14 01:36:52;;;;;;;13.02;11.82;;;;;;;;;;5032008;28;20368;-85
2021/07/14 01:39:19;;;;;;;12.70;11.50;;;;;;;;;;5032052;28;20376;-89
2021/07/14 01:41:47;;;;;;;14.35;12.70;;;;;;;;;;5049853;28;20768;-91
2021/07/14 01:44:13;;;;;;;14.60;12.50;;;;;;;;;;5032097;28;20404;-90
2021/07/14 01:46:41;;;;;;;12.97;11.63;;;;;;;;;;5031675;28;20380;-88
2021/07/14 01:49:09;;;;;;;12.77;11.48;;;;;;;;;;5030843;28;20388;-86
2021/07/14 01:51:41;;;;;;;14.05;12.55;;;;;;;;;;5049522;28;20948;-88
2021/07/14 01:54:08;;;;;;;15.35;13.10;;;;;;;;;;5032857;28;20372;-88
2021/07/14 01:56:38;;;;;;;17.85;13.45;;;;;;;;;;5032454;28;20433;-86
2021/07/14 01:59:05;;;;;;;14.88;13.40;;;;;;;;;;5052028;28;20364;-86
2021/07/14 02:01:32;;;;;;;15.45;13.00;;;;;;;;;;5033267;28;20479;-90
2021/07/14 02:06:48;;;;;;;12.50;11.40;;;;;;;;;;5049836;28;20430;-88
2021/07/14 02:09:14;;;;;;;15.35;13.48;;;;;;;;;;5033607;28;20481;-91
2021/07/14 02:11:41;;;;;;;15.40;13.75;;;;;;;;;;5032139;28;20392;-86
2021/07/14 02:14:07;;;;;;;15.73;14.13;;;;;;;;;;5031484;28;20451;-90
2021/07/14 02:16:35;;;;;;;16.73;14.30;;;;;;;;;;5031635;28;20433;-88
2021/07/14 02:19:01;;;;;;;15.18;13.57;;;;;;;;;;5031493;28;20383;-87
2021/07/14 02:21:27;;;;;;;17.30;15.50;;;;;;;;;;5033014;28;20372;-88
2021/07/14 02:23:54;;;;;;;15.90;14.30;;;;;;;;;;5049186;28;20396;-86
2021/07/14 02:26:20;;;;;;;17.25;15.38;;;;;;;;;;5031876;28;20423;-88
2021/07/14 02:28:46;;;;;;;17.10;15.30;;;;;;;;;;5032435;28;20410;-88
2021/07/14 02:31:12;;;;;;;16.85;15.15;;;;;;;;;;5033212;28;20409;-88
2021/07/14 02:33:38;;;;;;;16.40;14.73;;;;;;;;;;5050452;28;20367;-88
2021/07/14 02:36:05;;;;;;;18.25;14.55;;;;;;;;;;5031432;28;20466;-89
2021/07/14 02:38:41;;;;;;;18.67;15.75;;;;;;;;;;5032903;28;20519;-90
2021/07/14 02:41:07;;;;;;;16.85;15.25;;;;;;;;;;5031401;28;20441;-86
2021/07/14 02:43:35;;;;;;;16.15;14.43;;;;;;;;;;5049198;28;20388;-88
2021/07/14 02:46:03;;;;;;;17.55;15.68;;;;;;;;;;5049204;28;20446;-86
2021/07/14 02:48:30;;;;;;;16.42;14.65;;;;;;;;;;5049449;28;20372;-89
2021/07/14 02:50:57;;;;;;;15.15;13.68;;;;;;;;;;5048911;28;20374;-86
2021/07/14 02:53:27;;;;;;;15.98;14.57;;;;;;;;;;5030910;28;20376;-90
2021/07/14 02:55:58;;;;;;;15.70;14.10;;;;;;;;;;5030931;28;20384;-88
2021/07/14 02:58:27;;;;;;;16.75;15.02;;;;;;;;;;5030749;28;20399;-86
2021/07/14 03:00:53;;;;;;;18.08;16.27;;;;;;;;;;5048836;28;20403;-90
2021/07/14 03:03:22;;;;;;;16.42;14.85;;;;;;;;;;5034723;28;20447;-87
2021/07/14 03:05:48;;;;;;;16.10;14.55;;;;;;;;;;5035072;28;20419;-86
2021/07/14 03:08:15;;;;;;;16.38;14.63;;;;;;;;;;5052408;28;20449;-85
2021/07/14 03:10:43;;;;;;;16.02;14.32;;;;;;;;;;5034376;28;20376;-90
2021/07/14 03:13:09;;;;;;;15.90;14.13;;;;;;;;;;5035169;28;20737;-86
2021/07/14 03:15:38;;;;;;;15.67;14.17;;;;;;;;;;5034588;28;20384;-88
2021/07/14 03:18:05;;;;;;;17.15;14.82;;;;;;;;;;5052166;28;20876;-85
2021/07/14 03:20:31;;;;;;;17.33;15.52;;;;;;;;;;5052149;28;20379;-87
2021/07/14 03:22:58;;;;;;;16.05;14.52;;;;;;;;;;5034554;28;20934;-87
2021/07/14 03:25:24;;;;;;;17.33;15.52;;;;;;;;;;5034747;28;20388;-87
2021/07/14 03:27:51;;;;;;;15.82;14.35;;;;;;;;;;5052634;28;20364;-89
2021/07/14 03:30:19;;;;;;;16.45;14.75;;;;;;;;;;5034419;28;20461;-86
2021/07/14 03:32:45;;;;;;;17.40;14.27;;;;;;;;;;5034323;28;20525;-89
2021/07/14 03:35:15;;;;;;;15.68;13.98;;;;;;;;;;5034009;28;20529;-87
2021/07/14 03:37:43;;;;;;;15.80;14.20;;;;;;;;;;5051615;28;20381;-89
2021/07/14 03:40:09;;;;;;;15.20;13.70;;;;;;;;;;5034056;28;20460;-86
2021/07/14 03:42:36;;;;;;;16.55;14.32;;;;;;;;;;5034231;28;20402;-85
2021/07/14 03:45:03;;;;;;;14.85;13.05;;;;;;;;;;5034083;28;20387;-85
2021/07/14 03:47:29;;;;;;;15.50;13.98;;;;;;;;;;5050352;28;20884;-84
2021/07/14 03:49:56;;;;;;;15.40;13.90;;;;;;;;;;5034142;28;20745;-85
2021/07/14 03:52:22;;;;;;;14.10;12.68;;;;;;;;;;5033808;28;20368;-85
2021/07/14 03:54:49;;;;;;;14.00;12.75;;;;;;;;;;5038228;28;20372;-84
2021/07/14 03:57:15;;;;;;;15.38;13.93;;;;;;;;;;5054208;28;20379;-88
2021/07/14 03:59:42;;;;;;;15.38;12.90;;;;;;;;;;5038267;28;20535;-84
2021/07/14 04:02:11;;;;;;;18.23;14.20;;;;;;;;;;5054000;28;20372;-83
2021/07/14 04:04:37;;;;;;;15.35;13.30;;;;;;;;;;5038442;28;20396;-87
2021/07/14 04:07:13;;;;;;;14.13;12.93;;;;;;;;;;5053087;28;20382;-87
2021/07/14 04:09:39;;;;;;;16.23;14.27;;;;;;;;;;5036270;28;20398;-90
2021/07/14 04:12:05;;;;;;;14.80;13.30;;;;;;;;;;5034179;28;20388;-91
2021/07/14 04:14:31;;;;;;;19.63;13.55;;;;;;;;;;5037477;28;20445;-90
2021/07/14 04:16:58;;;;;;;15.63;13.20;;;;;;;;;;5033680;28;20384;-88
2021/07/14 04:19:24;;;;;;;14.07;12.63;;;;;;;;;;5051269;28;20883;-88
2021/07/14 04:21:50;;;;;;;16.30;13.75;;;;;;;;;;5034595;28;20460;-87
2021/07/14 04:24:16;;;;;;;16.25;12.95;;;;;;;;;;5055114;28;20461;-86
2021/07/14 04:26:42;;;;;;;16.73;14.20;;;;;;;;;;5034736;28;20437;-88
2021/07/14 04:29:08;;;;;;;22.37;15.40;;;;;;;;;;5033581;28;20384;-88
2021/07/14 04:31:35;;;;;;;16.75;15.07;;;;;;;;;;5033658;28;20391;-85
2021/07/14 04:34:01;;;;;;;19.30;15.77;;;;;;;;;;5033971;28;20376;-86
2021/07/14 04:36:28;;;;;;;18.42;14.60;;;;;;;;;;5053719;28;20399;-85
2021/07/14 04:38:54;;;;;;;18.33;15.15;;;;;;;;;;5053138;28;20411;-86
2021/07/14 04:41:21;;;;;;;18.50;14.80;;;;;;;;;;5034073;28;20442;-87
2021/07/14 04:43:46;;;;;;;17.38;13.98;;;;;;;;;;5050489;28;20413;-88
2021/07/14 04:46:13;;;;;;;19.27;14.25;;;;;;;;;;5052293;28;20364;-88
2021/07/14 04:48:39;;;;;;;17.00;14.60;;;;;;;;;;5034718;28;20387;-85
2021/07/14 04:51:05;;;;;;;17.63;15.50;;;;;;;;;;5037043;28;20379;-87
2021/07/14 04:53:30;;;;;;;21.40;16.17;;;;;;;;;;5053311;28;20363;-88
2021/07/14 04:55:56;;;;;;;22.48;17.88;;;;;;;;;;5036243;28;20376;-85
2021/07/14 04:58:22;;;;;;;21.85;17.25;;;;;;;;;;5035382;28;20387;-85
2021/07/14 05:00:48;;;;;;;19.83;16.37;;;;;;;;;;5034369;28;20371;-88
2021/07/14 05:03:14;;;;;;;21.85;17.92;;;;;;;;;;5035479;28;20399;-88
2021/07/14 05:05:40;;;;;;;27.30;18.42;;;;;;;;;;5033507;28;20445;-86
2021/07/14 05:08:06;;;;;;;23.50;17.35;;;;;;;;;;5033103;28;20376;-89
2021/07/14 05:10:32;;;;;;;24.23;16.20;;;;;;;;;;5052831;28;20400;-84
2021/07/14 05:12:59;;;;;;;26.15;17.42;;;;;;;;;;5033874;28;20471;-88
2021/07/14 05:15:25;;;;;;;25.40;17.67;;;;;;;;;;5035153;28;20457;-89
2021/07/14 05:17:51;;;;;;;23.33;17.03;;;;;;;;;;5033208;28;20380;-87
2021/07/14 05:20:17;;;;;;;21.55;15.93;;;;;;;;;;5032743;28;20383;-86
2021/07/14 05:22:44;;;;;;;24.58;17.70;;;;;;;;;;5032934;28;20399;-85
2021/07/14 05:25:10;;;;;;;23.85;17.35;;;;;;;;;;5031647;28;20399;-88
2021/07/14 05:27:36;;;;;;;22.75;16.30;;;;;;;;;;5033146;28;20422;-88
2021/07/14 05:30:06;;;;;;;22.13;15.52;;;;;;;;;;5050474;28;20387;-87
2021/07/14 05:32:32;;;;;;;24.10;17.65;;;;;;;;;;5033513;28;20388;-87
2021/07/14 05:34:58;;;;;;;20.25;15.45;;;;;;;;;;5031967;28;20458;-86
2021/07/14 05:37:24;;;;;;;20.85;16.02;;;;;;;;;;5049853;28;20466;-86
2021/07/14 05:39:50;;;;;;;24.17;18.08;;;;;;;;;;5051725;28;20375;-86
2021/07/14 05:42:16;;;;;;;27.63;17.90;;;;;;;;;;5036552;28;20379;-87
2021/07/14 05:44:42;;;;;;;24.48;18.23;;;;;;;;;;5035283;28;20378;-86
2021/07/14 05:47:08;;;;;;;26.17;17.95;;;;;;;;;;5034919;28;20449;-90
2021/07/14 05:49:34;;;;;;;23.20;17.75;;;;;;;;;;5033712;28;20453;-86
2021/07/14 05:52:00;;;;;;;24.77;17.75;;;;;;;;;;5031676;28;20893;-85
2021/07/14 05:54:26;;;;;;;20.40;17.33;;;;;;;;;;5031844;28;20419;-90
2021/07/14 05:56:52;;;;;;;25.35;18.33;;;;;;;;;;5049767;28;20868;-89
2021/07/14 05:59:18;;;;;;;22.60;18.95;;;;;;;;;;5048954;28;20364;-84
2021/07/14 06:01:44;;;;;;;27.25;18.17;;;;;;;;;;5031135;28;20379;-86
2021/07/14 06:04:10;;;;;;;21.67;16.95;;;;;;;;;;5030881;28;20804;-85
2021/07/14 06:06:36;;;;;;;22.55;17.10;;;;;;;;;;5031725;28;21149;-86
2021/07/14 06:09:02;;;;;;;24.53;17.43;;;;;;;;;;5048500;28;20376;-88
2021/07/14 06:11:28;;;;;;;20.08;17.90;;;;;;;;;;5049073;28;20399;-86
2021/07/14 06:13:54;;;;;;;21.52;17.25;;;;;;;;;;5048701;28;20427;-87
2021/07/14 06:16:20;;;;;;;20.92;17.27;;;;;;;;;;5030682;28;20971;-85
2021/07/14 06:18:47;;;;;;;22.52;17.88;;;;;;;;;;5049358;28;20376;-84
2021/07/14 06:21:13;;;;;;;20.27;15.98;;;;;;;;;;5032159;28;20384;-90
2021/07/14 06:23:39;;;;;;;21.37;17.90;;;;;;;;;;5031111;28;20762;-89
2021/07/14 06:26:05;;;;;;;17.92;16.02;;;;;;;;;;5031182;28;20413;-85
2021/07/14 06:28:31;;;;;;;22.70;18.33;;;;;;;;;;5058574;28;20422;-86
2021/07/14 06:30:57;;;;;;;22.27;18.15;;;;;;;;;;5060487;28;20364;-86
2021/07/14 06:33:23;;;;;;;25.08;19.50;;;;;;;;;;5061047;28;20393;-86
2021/07/14 06:35:52;;;;;;;23.07;18.53;;;;;;;;;;5044485;28;20391;-86
2021/07/14 06:38:19;;;;;;;23.20;18.13;;;;;;;;;;5038869;28;20375;-88
2021/07/14 06:40:45;;;;;;;26.75;19.52;;;;;;;;;;5052497;28;20387;-87
2021/07/14 06:43:16;;;;;;;24.33;19.42;;;;;;;;;;5050519;28;20419;-84
2021/07/14 06:45:43;;;;;;;24.60;19.38;;;;;;;;;;5032790;28;20392;-86
2021/07/14 06:48:09;;;;;;;23.73;19.58;;;;;;;;;;5034403;28;20394;-85
2021/07/14 06:50:35;;;;;;;25.30;18.92;;;;;;;;;;5030741;28;20908;-86
2021/07/14 06:53:03;;;;;;;24.70;19.53;;;;;;;;;;5034545;28;20478;-88
2021/07/14 06:55:29;;;;;;;25.15;19.70;;;;;;;;;;5034181;28;21109;-87
2021/07/14 06:57:55;;;;;;;23.13;19.60;;;;;;;;;;5048423;28;20376;-88
2021/07/14 07:00:21;;;;;;;23.90;20.02;;;;;;;;;;5034206;28;20379;-86
2021/07/14 07:02:47;;;;;;;23.17;20.10;;;;;;;;;;5034505;28;20446;-86
2021/07/14 07:05:13;;;;;;;21.98;19.25;;;;;;;;;;5033284;28;20414;-87
2021/07/14 07:07:40;;;;;;;24.77;21.00;;;;;;;;;;5052936;28;20400;-86
2021/07/14 07:10:06;;;;;;;26.08;20.58;;;;;;;;;;5051681;28;20410;-88
2021/07/14 07:12:32;;;;;;;21.97;19.47;;;;;;;;;;5051263;28;20379;-89
2021/07/14 07:14:58;;;;;;;24.13;20.10;;;;;;;;;;5052673;28;20378;-86
2021/07/14 07:17:24;;;;;;;21.23;18.63;;;;;;;;;;5035120;28;20883;-85
2021/07/14 07:19:50;;;;;;;20.95;17.92;;;;;;;;;;5052176;28;20808;-87
2021/07/14 07:22:17;;;;;;;19.70;17.63;;;;;;;;;;5052395;28;20486;-88
2021/07/14 07:24:43;;;;;;;20.20;17.13;;;;;;;;;;5030730;28;20773;-87
2021/07/14 07:27:09;;;;;;;18.02;16.10;;;;;;;;;;5051043;28;20372;-86
2021/07/14 07:29:39;;;;;;;20.53;17.13;;;;;;;;;;5051488;28;20443;-86
2021/07/14 07:32:05;;;;;;;21.25;17.35;;;;;;;;;;5033541;28;20368;-86
2021/07/14 07:34:31;;;;;;;19.20;17.17;;;;;;;;;;5048865;28;20421;-86
2021/07/14 07:37:00;;;;;;;19.50;16.65;;;;;;;;;;5033433;28;20387;-88
2021/07/14 07:39:27;;;;;;;20.60;16.25;;;;;;;;;;5051527;28;20393;-85
2021/07/14 07:41:53;;;;;;;18.88;16.85;;;;;;;;;;5049478;28;20435;-87
2021/07/14 07:44:19;;;;;;;18.48;15.68;;;;;;;;;;5034614;28;20978;-84
2021/07/14 07:46:45;;;;;;;18.17;15.45;;;;;;;;;;5033861;28;20384;-89
2021/07/14 07:49:11;;;;;;;17.27;15.37;;;;;;;;;;5049008;28;20384;-86
2021/07/14 07:51:38;;;;;;;17.50;15.70;;;;;;;;;;5051928;28;20384;-87
2021/07/14 07:54:04;;;;;;;17.48;15.38;;;;;;;;;;5034019;28;20489;-87
2021/07/14 07:56:33;;;;;;;17.95;16.05;;;;;;;;;;5033193;28;20373;-89
2021/07/14 07:59:00;;;;;;;17.98;16.17;;;;;;;;;;5033253;28;20897;-88
2021/07/14 08:01:27;;;;;;;17.17;15.40;;;;;;;;;;5033195;28;20386;-86
2021/07/14 08:03:53;;;;;;;19.75;17.48;;;;;;;;;;5051351;28;20400;-87
2021/07/14 08:06:19;;;;;;;20.13;16.92;;;;;;;;;;5032972;28;20388;-87
2021/07/14 08:08:45;;;;;;;18.70;16.70;;;;;;;;;;5032742;28;20375;-86
2021/07/14 08:11:11;;;;;;;18.05;16.20;;;;;;;;;;5048066;28;20399;-84
2021/07/14 08:13:37;;;;;;;18.58;15.50;;;;;;;;;;5051124;28;20363;-86
2021/07/14 08:16:03;;;;;;;15.82;14.23;;;;;;;;;;5032719;28;20369;-85
2021/07/14 08:18:29;;;;;;;13.82;12.43;;;;;;;;;;5032214;28;20379;-86
2021/07/14 08:20:56;;;;;;;15.13;11.80;;;;;;;;;;5050540;28;20364;-85
2021/07/14 08:23:22;;;;;;;13.47;12.17;;;;;;;;;;5050061;28;21338;-85
2021/07/14 08:25:51;;;;;;;14.77;11.95;;;;;;;;;;5032854;28;20421;-86
2021/07/14 08:28:17;;;;;;;15.45;12.52;;;;;;;;;;5028538;28;20382;-86
2021/07/14 08:30:43;;;;;;;13.55;12.05;;;;;;;;;;5031923;28;20459;-88
2021/07/14 08:33:10;;;;;;;13.73;12.35;;;;;;;;;;5033892;28;20380;-86
2021/07/14 08:35:54;;;;;;;12.73;11.38;;;;;;;;;;5025175;28;20468;-87
2021/07/14 08:38:21;;;;;;;12.90;11.60;;;;;;;;;;5030137;28;20384;-87
2021/07/14 08:40:49;;;;;;;13.43;12.03;;;;;;;;;;5030081;28;20386;-87
2021/07/14 08:43:15;;;;;;;12.55;11.35;;;;;;;;;;5031277;28;20413;-88
2021/07/14 08:45:42;;;;;;;12.80;11.57;;;;;;;;;;5030512;28;20376;-85
2021/07/14 08:48:11;;;;;;;11.60;10.50;;;;;;;;;;5032220;28;20391;-85
2021/07/14 08:50:43;;;;;;;15.68;9.98;;;;;;;;;;5050025;28;20477;-86
2021/07/14 08:53:12;;;;;;;11.90;9.13;;;;;;;;;;5048757;28;20391;-87
2021/07/14 08:55:38;;;;;;;10.02;8.82;;;;;;;;;;5046056;28;20380;-89
2021/07/14 08:58:04;;;;;;;10.17;8.90;;;;;;;;;;5027858;28;20431;-87
2021/07/14 09:00:31;;;;;;;8.65;7.57;;;;;;;;;;5046522;28;20387;-87
2021/07/14 09:02:57;;;;;;;8.57;7.15;;;;;;;;;;5047831;28;20403;-86
2021/07/14 09:05:23;;;;;;;11.30;7.35;;;;;;;;;;5031653;28;20395;-87
2021/07/14 09:07:49;;;;;;;7.50;6.15;;;;;;;;;;5030675;28;20946;-88
2021/07/14 09:10:17;;;;;;;8.65;6.78;;;;;;;;;;5049859;28;20400;-88
2021/07/14 09:12:45;;;;;;;8.20;6.45;;;;;;;;;;5031972;28;20376;-86
2021/07/14 09:15:13;;;;;;;6.88;6.20;;;;;;;;;;5049872;28;20376;-87
2021/07/14 09:17:43;;;;;;;7.53;6.57;;;;;;;;;;5031013;28;20371;-88
2021/07/14 09:20:12;;;;;;;12.52;7.25;;;;;;;;;;5049479;28;20380;-87
2021/07/14 09:22:38;;;;;;;7.65;6.85;;;;;;;;;;5032194;28;20372;-86
2021/07/14 09:25:08;;;;;;;9.52;7.57;;;;;;;;;;5031811;28;20417;-87
2021/07/14 09:27:37;;;;;;;9.82;7.60;;;;;;;;;;5046709;28;20387;-88
2021/07/14 09:30:03;;;;;;;11.50;7.78;;;;;;;;;;5030019;28;20870;-86
2021/07/14 09:32:42;;;;;;;9.65;7.75;;;;;;;;;;5044707;28;20875;-85
2021/07/14 09:35:08;;;;;;;9.68;8.30;;;;;;;;;;5046616;28;20909;-90
2021/07/14 09:37:37;;;;;;;10.13;8.05;;;;;;;;;;5029229;28;20384;-90
2021/07/14 09:40:04;;;;;;;8.80;7.97;;;;;;;;;;5046880;28;20960;-87
2021/07/14 09:42:30;;;;;;;9.80;8.00;;;;;;;;;;5047090;28;20376;-86
2021/07/14 09:44:56;;;;;;;8.80;7.50;;;;;;;;;;5029221;28;20376;-85
2021/07/14 09:47:22;;;;;;;9.10;8.20;;;;;;;;;;5029088;28;20380;-90
2021/07/14 09:49:49;;;;;;;9.15;8.20;;;;;;;;;;5028040;28;20404;-84
2021/07/14 09:52:22;;;;;;;9.05;8.15;;;;;;;;;;5040832;28;20475;-87
2021/07/14 09:54:58;;;;;;;12.77;8.02;;;;;;;;;;5027697;28;20380;-83
2021/07/14 09:57:25;;;;;;;9.90;8.98;;;;;;;;;;5044389;28;20383;-85
2021/07/14 09:59:50;;;;;;;10.93;8.73;;;;;;;;;;5027955;28;20409;-88
2021/07/14 10:02:17;;;;;;;10.73;8.63;;;;;;;;;;5028470;28;20790;-86
2021/07/14 10:04:46;;;;;;;9.43;8.43;;;;;;;;;;5028368;28;20995;-83
2021/07/14 10:07:19;;;;;;;9.07;8.25;;;;;;;;;;5027547;28;20404;-86
2021/07/14 10:09:46;;;;;;;9.20;8.32;;;;;;;;;;5027311;28;20380;-85
2021/07/14 10:12:28;;;;;;;11.13;8.43;;;;;;;;;;5045669;28;20371;-87
2021/07/14 10:14:55;;;;;;;10.70;8.47;;;;;;;;;;5045797;28;20379;-84
2021/07/14 10:17:37;;;;;;;15.10;8.18;;;;;;;;;;5027456;28;20478;-88
2021/07/14 10:20:26;;;;;;;10.30;8.45;;;;;;;;;;5047460;28;20388;-86
2021/07/14 10:22:53;;;;;;;9.52;8.55;;;;;;;;;;5029527;28;20400;-85
2021/07/14 10:25:20;;;;;;;9.07;8.15;;;;;;;;;;5029196;28;20415;-86
2021/07/14 10:27:46;;;;;;;9.23;8.30;;;;;;;;;;5028057;28;20450;-86
2021/07/14 10:30:12;;;;;;;9.33;8.30;;;;;;;;;;5028367;28;20418;-85
2021/07/14 10:32:41;;;;;;;10.20;9.20;;;;;;;;;;5027336;28;20379;-89
2021/07/14 10:35:08;;;;;;;9.50;8.60;;;;;;;;;;5044797;28;20719;-89
2021/07/14 10:37:36;;;;;;;10.57;8.73;;;;;;;;;;5027829;28;20908;-90
2021/07/14 10:40:03;;;;;;;9.90;8.27;;;;;;;;;;5028477;28;21209;-86
2021/07/14 10:42:29;;;;;;;10.80;8.23;;;;;;;;;;5027675;28;20903;-85
2021/07/14 10:44:56;;;;;;;10.15;8.40;;;;;;;;;;5044529;28;20402;-90
2021/07/14 10:47:23;;;;;;;8.32;7.13;;;;;;;;;;5027190;28;20384;-87
2021/07/14 10:49:49;;;;;;;8.13;7.15;;;;;;;;;;5027586;28;20737;-88
2021/07/14 10:52:15;;;;;;;9.35;7.40;;;;;;;;;;5026922;28;20380;-88
2021/07/14 10:54:42;;;;;;;8.63;7.73;;;;;;;;;;5027893;28;20387;-85
2021/07/14 10:57:09;;;;;;;7.95;6.57;;;;;;;;;;5028985;28;21253;-85
2021/07/14 10:59:35;;;;;;;10.50;7.57;;;;;;;;;;5030346;28;20463;-86
2021/07/14 11:02:02;;;;;;;7.90;7.10;;;;;;;;;;5031191;28;20388;-87
2021/07/14 11:04:28;;;;;;;9.18;7.18;;;;;;;;;;5048118;28;20931;-88
2021/07/14 11:06:55;;;;;;;9.93;7.78;;;;;;;;;;5030527;28;20381;-87
2021/07/14 11:09:33;;;;;;;8.25;7.32;;;;;;;;;;5042991;28;20389;-87
2021/07/14 11:11:59;;;;;;;8.00;6.80;;;;;;;;;;5045343;28;20380;-87
2021/07/14 11:14:44;;;;;;;10.30;7.35;;;;;;;;;;5028160;28;20885;-89
2021/07/14 11:17:11;;;;;;;8.40;7.50;;;;;;;;;;5028006;28;20791;-90
2021/07/14 11:19:44;;;;;;;10.25;7.68;;;;;;;;;;5028618;28;20387;-87
2021/07/14 11:22:10;;;;;;;7.47;6.70;;;;;;;;;;5028347;28;20436;-83
2021/07/14 11:24:39;;;;;;;7.75;7.15;;;;;;;;;;5049656;28;20886;-84
2021/07/14 11:27:24;;;;;;;9.80;7.50;;;;;;;;;;5049130;28;20857;-86
2021/07/14 11:29:51;;;;;;;8.75;7.30;;;;;;;;;;5049479;28;20375;-88
2021/07/14 11:32:38;;;;;;;7.93;7.13;;;;;;;;;;5031397;28;20433;-86
2021/07/14 11:35:16;;;;;;;7.63;6.90;;;;;;;;;;5047189;28;20460;-88
2021/07/14 11:37:44;;;;;;;7.78;6.97;;;;;;;;;;5031187;28;20383;-87
2021/07/14 11:40:21;;;;;;;9.97;8.00;;;;;;;;;;5032926;28;20388;-85
2021/07/14 11:42:57;;;;;;;10.35;7.82;;;;;;;;;;5051747;28;20896;-84
2021/07/14 11:45:27;;;;;;;18.53;7.50;;;;;;;;;;5034664;28;20364;-85
2021/07/14 11:48:02;;;;;;;10.57;7.45;;;;;;;;;;5051666;28;20375;-88
2021/07/14 11:50:46;;;;;;;10.05;7.03;;;;;;;;;;5042682;28;20390;-89
2021/07/14 11:53:31;;;;;;;7.50;6.72;;;;;;;;;;5033269;28;20861;-87
2021/07/14 11:55:57;;;;;;;8.57;6.78;;;;;;;;;;5050624;28;20371;-86
2021/07/14 11:58:42;;;;;;;9.32;6.68;;;;;;;;;;5033529;28;20913;-88
2021/07/14 12:01:11;;;;;;;9.45;6.70;;;;;;;;;;5033346;28;20379;-87
2021/07/14 12:03:37;;;;;;;8.18;6.63;;;;;;;;;;5031293;28;20450;-88
2021/07/14 12:06:23;;;;;;;8.03;6.70;;;;;;;;;;5031885;28;20414;-89
2021/07/14 12:08:49;;;;;;;12.10;7.53;;;;;;;;;;5048722;28;20387;-87
2021/07/14 12:11:19;;;;;;;9.93;7.00;;;;;;;;;;5050751;28;20368;-87
2021/07/14 12:13:48;;;;;;;7.78;6.82;;;;;;;;;;5049316;28;20876;-86
2021/07/14 12:16:24;;;;;;;7.47;6.43;;;;;;;;;;5026658;28;20387;-87
2021/07/14 12:18:54;;;;;;;8.85;7.25;;;;;;;;;;5029936;28;20395;-86
2021/07/14 12:21:40;;;;;;;8.02;6.85;;;;;;;;;;5029305;28;20368;-88
2021/07/14 12:24:07;;;;;;;7.70;6.88;;;;;;;;;;5029619;28;20403;-89
2021/07/14 12:26:33;;;;;;;8.65;7.30;;;;;;;;;;5029960;28;20419;-86
2021/07/14 12:28:59;;;;;;;10.20;7.47;;;;;;;;;;5030311;28;20372;-91
2021/07/14 12:31:26;;;;;;;9.15;6.90;;;;;;;;;;5047655;28;20380;-88
2021/07/14 12:33:53;;;;;;;9.10;6.35;;;;;;;;;;5029164;28;20411;-86
2021/07/14 12:36:20;;;;;;;9.20;6.35;;;;;;;;;;5029574;28;20406;-90
2021/07/14 12:38:53;;;;;;;8.65;7.15;;;;;;;;;;5045625;28;20433;-87
2021/07/14 12:41:19;;;;;;;7.05;6.35;;;;;;;;;;5029175;28;20380;-89
2021/07/14 12:43:45;;;;;;;9.50;6.87;;;;;;;;;;5029616;28;20403;-86
2021/07/14 12:46:23;;;;;;;7.28;6.38;;;;;;;;;;5029489;28;20510;-87
2021/07/14 12:48:49;;;;;;;7.57;6.17;;;;;;;;;;5029818;28;20383;-88
2021/07/14 12:51:15;;;;;;;6.55;5.95;;;;;;;;;;5029358;28;20908;-87
2021/07/14 12:53:41;;;;;;;10.02;6.50;;;;;;;;;;5029814;28;20368;-88
2021/07/14 12:56:07;;;;;;;7.63;6.82;;;;;;;;;;5029047;28;20375;-87
2021/07/14 12:58:34;;;;;;;7.80;6.43;;;;;;;;;;5033972;28;20384;-84
2021/07/14 13:01:05;;;;;;;7.88;7.00;;;;;;;;;;5059743;28;20379;-88
2021/07/14 13:03:33;;;;;;;8.82;6.88;;;;;;;;;;5038039;28;20439;-85
2021/07/14 13:05:59;;;;;;;9.63;7.07;;;;;;;;;;5053068;28;20396;-88
2021/07/14 13:08:30;;;;;;;7.43;6.38;;;;;;;;;;5039395;28;20390;-88
2021/07/14 13:11:00;;;;;;;7.80;6.18;;;;;;;;;;5050632;28;20372;-89
2021/07/14 13:13:26;;;;;;;6.73;6.13;;;;;;;;;;5050110;28;20421;-88
2021/07/14 13:15:54;;;;;;;7.43;6.63;;;;;;;;;;5030419;28;20458;-88
2021/07/14 13:18:22;;;;;;;6.90;6.20;;;;;;;;;;5047021;28;20379;-86
2021/07/14 13:20:52;;;;;;;6.88;6.20;;;;;;;;;;5044318;28;20401;-90
2021/07/14 13:23:26;;;;;;;7.35;6.03;;;;;;;;;;5030358;28;20478;-88
2021/07/14 13:25:53;;;;;;;75.97;19.70;;;;;;;;;;5047174;28;20377;-86
2021/07/14 13:28:20;;;;;;;18.65;8.63;;;;;;;;;;5029300;28;20376;-89
2021/07/14 13:30:59;;;;;;;11.43;6.38;;;;;;;;;;5045432;28;20521;-89
2021/07/14 13:33:32;;;;;;;6.57;5.78;;;;;;;;;;5029789;28;20440;-90
2021/07/14 13:36:00;;;;;;;6.97;5.60;;;;;;;;;;5031207;28;20423;-89
2021/07/14 13:38:38;;;;;;;6.10;5.50;;;;;;;;;;5046470;28;20384;-87
2021/07/14 13:41:04;;;;;;;8.48;5.82;;;;;;;;;;5050156;28;20411;-87
2021/07/14 13:43:41;;;;;;;8.55;6.07;;;;;;;;;;5030299;28;20411;-86
2021/07/14 13:46:08;;;;;;;6.30;5.70;;;;;;;;;;5031077;28;20398;-90
2021/07/14 13:48:36;;;;;;;7.93;5.82;;;;;;;;;;5046747;28;20382;-86
2021/07/14 13:51:02;;;;;;;16.02;7.22;;;;;;;;;;5031810;28;21066;-88
2021/07/14 13:53:33;;;;;;;6.10;5.50;;;;;;;;;;5031376;28;20730;-88
2021/07/14 13:56:03;;;;;;;5.82;5.00;;;;;;;;;;5031130;28;20378;-87
2021/07/14 13:58:29;;;;;;;5.83;4.97;;;;;;;;;;5048986;28;20379;-87
2021/07/14 14:01:04;;;;;;;5.05;4.55;;;;;;;;;;5033382;28;20426;-88
2021/07/14 14:03:30;;;;;;;5.35;4.72;;;;;;;;;;5048126;28;20549;-85
2021/07/14 14:06:06;;;;;;;9.50;4.60;;;;;;;;;;5032710;28;20847;-87
2021/07/14 14:08:32;;;;;;;6.55;4.43;;;;;;;;;;5049305;28;20446;-86
2021/07/14 14:11:09;;;;;;;6.18;4.60;;;;;;;;;;5045069;28;20387;-88
2021/07/14 14:13:35;;;;;;;7.35;4.72;;;;;;;;;;5031002;28;20768;-86
2021/07/14 14:16:01;;;;;;;6.83;4.70;;;;;;;;;;5049178;28;20368;-88
2021/07/14 14:18:27;;;;;;;5.00;4.50;;;;;;;;;;5049310;28;20452;-87
2021/07/14 14:20:53;;;;;;;5.45;4.72;;;;;;;;;;5048217;28;20379;-86
2021/07/14 14:23:20;;;;;;;7.05;4.97;;;;;;;;;;5031617;28;20754;-85
2021/07/14 14:25:52;;;;;;;6.13;4.80;;;;;;;;;;5030633;28;21356;-88
2021/07/14 14:28:21;;;;;;;5.87;4.77;;;;;;;;;;5030579;28;20390;-88
2021/07/14 14:30:48;;;;;;;5.55;5.03;;;;;;;;;;5031702;28;20897;-86
2021/07/14 14:33:14;;;;;;;8.25;5.40;;;;;;;;;;5030299;28;20777;-86
2021/07/14 14:35:41;;;;;;;5.90;4.82;;;;;;;;;;5040371;28;20380;-88
2021/07/14 14:38:08;;;;;;;5.30;4.53;;;;;;;;;;5029443;28;20898;-85
2021/07/14 14:40:37;;;;;;;7.20;4.85;;;;;;;;;;5029579;28;20404;-88